CheckWX is a tool to help pilots better visualize weather data.  It is not intended as a substitute for an official pre-flight weather briefing.

22:46:14 UTC

KCVO METAR
Corvallis Municipal Airport
Corvallis, Oregon, USA
Current

50 mins ago

KCVO 122156Z AUTO VRB04G14KT 10SM CLR 24/14 A3010 RMK AO2 SLP192 T02440139
Observed
Jul-12 @ 21:56 UTC
Wind
  • Variable at 4 KTS
  • Gusting to 14 KTS
Visibility
10 SM
Flight Rules
VFR
Cloud Levels
  • Clear skies
Temperature
24°C / 75°F
Dewpoint
14°C / 57°F
Humidity
54%
Altimeter
30.1" Hg
Pressure
1019.32 hPa
Previous

2 hours ago

KCVO 122056Z AUTO VRB05KT 10SM BKN040 24/14 A3012 RMK AO2 SLP198 T02390139 58014
Observed
Jul-12 @ 20:56 UTC
Wind
  • Variable at 5 KTS
Visibility
10 SM
Flight Rules
VFR
Cloud Levels
  • Broken at 4,000' AGL
Temperature
24°C / 75°F
Dewpoint
14°C / 57°F
Humidity
54%
Altimeter
30.12" Hg
Pressure
1020.02 hPa
Previous

3 hours ago

KCVO 121956Z AUTO 36006KT 10SM BKN034 BKN043 23/14 A3014 RMK AO2 SLP205 T02280139
Observed
Jul-12 @ 19:56 UTC
Wind
  • 360° at 6 KTS
Visibility
10 SM
Flight Rules
VFR
Cloud Levels
  • Broken at 3,400' AGL
  • Broken at 4,300' AGL
Temperature
23°C / 73°F
Dewpoint
14°C / 57°F
Humidity
57%
Altimeter
30.14" Hg
Pressure
1020.62 hPa